sensor_id;sensor_type;location;lat;lon;timestamp;temperature;humidity
24645;DHT22;12780;45.502;9.146;2023-03-15T00:01:18;13.70;95.60
24645;DHT22;12780;45.502;9.146;2023-03-15T00:03:45;13.70;94.80
24645;DHT22;12780;45.502;9.146;2023-03-15T00:06:12;13.80;95.90
24645;DHT22;12780;45.502;9.146;2023-03-15T00:08:38;13.80;95.30
24645;DHT22;12780;45.502;9.146;2023-03-15T00:11:04;13.80;94.70
24645;DHT22;12780;45.502;9.146;2023-03-15T00:13:30;13.80;94.50
24645;DHT22;12780;45.502;9.146;2023-03-15T00:15:58;13.80;94.50
24645;DHT22;12780;45.502;9.146;2023-03-15T00:18:25;13.90;92.70
24645;DHT22;12780;45.502;9.146;2023-03-15T00:20:50;13.80;93.70
24645;DHT22;12780;45.502;9.146;2023-03-15T00:23:16;13.80;93.60
24645;DHT22;12780;45.502;9.146;2023-03-15T00:25:46;13.80;94.10
24645;DHT22;12780;45.502;9.146;2023-03-15T00:28:12;13.80;93.10
24645;DHT22;12780;45.502;9.146;2023-03-15T00:30:38;13.80;93.30
24645;DHT22;12780;45.502;9.146;2023-03-15T00:33:04;13.70;92.10
24645;DHT22;12780;45.502;9.146;2023-03-15T00:35:36;13.80;93.50
24645;DHT22;12780;45.502;9.146;2023-03-15T00:38:02;13.70;91.90
24645;DHT22;12780;45.502;9.146;2023-03-15T00:40:29;13.70;91.80
24645;DHT22;12780;45.502;9.146;2023-03-15T00:42:55;13.70;92.40
24645;DHT22;12780;45.502;9.146;2023-03-15T00:45:22;13.70;91.10
24645;DHT22;12780;45.502;9.146;2023-03-15T00:47:52;13.70;90.20
24645;DHT22;12780;45.502;9.146;2023-03-15T00:50:19;13.70;90.30
24645;DHT22;12780;45.502;9.146;2023-03-15T00:52:44;13.70;88.70
24645;DHT22;12780;45.502;9.146;2023-03-15T00:55:17;13.80;89.50
24645;DHT22;12780;45.502;9.146;2023-03-15T00:57:44;13.70;88.10
24645;DHT22;12780;45.502;9.146;2023-03-15T01:00:13;13.80;89.70
24645;DHT22;12780;45.502;9.146;2023-03-15T01:02:40;13.70;90.90
24645;DHT22;12780;45.502;9.146;2023-03-15T01:05:07;13.70;90.90
24645;DHT22;12780;45.502;9.146;2023-03-15T01:07:33;13.60;90.20
24645;DHT22;12780;45.502;9.146;2023-03-15T01:10:00;13.60;91.20
24645;DHT22;12780;45.502;9.146;2023-03-15T01:12:27;13.70;91.90
24645;DHT22;12780;45.502;9.146;2023-03-15T01:14:54;13.60;91.00
24645;DHT22;12780;45.502;9.146;2023-03-15T01:17:19;13.50;91.10
24645;DHT22;12780;45.502;9.146;2023-03-15T01:19:45;13.40;91.50
24645;DHT22;12780;45.502;9.146;2023-03-15T01:22:11;13.50;91.20
24645;DHT22;12780;45.502;9.146;2023-03-15T01:24:36;13.50;90.60
24645;DHT22;12780;45.502;9.146;2023-03-15T01:27:02;13.50;91.50
24645;DHT22;12780;45.502;9.146;2023-03-15T01:29:27;13.40;91.30
24645;DHT22;12780;45.502;9.146;2023-03-15T01:31:53;13.40;91.00
24645;DHT22;12780;45.502;9.146;2023-03-15T01:34:19;13.40;91.10
24645;DHT22;12780;45.502;9.146;2023-03-15T01:36:49;13.30;91.70
24645;DHT22;12780;45.502;9.146;2023-03-15T01:39:15;13.30;90.90
24645;DHT22;12780;45.502;9.146;2023-03-15T01:41:41;13.30;91.70
24645;DHT22;12780;45.502;9.146;2023-03-15T01:44:12;13.30;91.00
24645;DHT22;12780;45.502;9.146;2023-03-15T01:46:39;13.30;91.50
24645;DHT22;12780;45.502;9.146;2023-03-15T01:49:24;13.30;91.20
24645;DHT22;12780;45.502;9.146;2023-03-15T01:52:06;13.30;90.70
24645;DHT22;12780;45.502;9.146;2023-03-15T01:54:40;13.20;91.20
24645;DHT22;12780;45.502;9.146;2023-03-15T01:57:10;13.20;91.20
24645;DHT22;12780;45.502;9.146;2023-03-15T01:59:41;13.20;90.20
24645;DHT22;12780;45.502;9.146;2023-03-15T02:02:08;13.20;91.10
24645;DHT22;12780;45.502;9.146;2023-03-15T02:04:43;13.10;91.40
24645;DHT22;12780;45.502;9.146;2023-03-15T02:07:12;13.10;91.30
24645;DHT22;12780;45.502;9.146;2023-03-15T02:10:08;13.00;90.60
24645;DHT22;12780;45.502;9.146;2023-03-15T02:12:39;13.00;91.00
24645;DHT22;12780;45.502;9.146;2023-03-15T02:15:07;13.00;91.30
24645;DHT22;12780;45.502;9.146;2023-03-15T02:17:42;13.00;91.40
24645;DHT22;12780;45.502;9.146;2023-03-15T02:23:03;12.90;91.30
24645;DHT22;12780;45.502;9.146;2023-03-15T02:28:09;12.80;91.40
24645;DHT22;12780;45.502;9.146;2023-03-15T02:30:35;12.80;91.60
24645;DHT22;12780;45.502;9.146;2023-03-15T02:33:03;12.80;91.90
24645;DHT22;12780;45.502;9.146;2023-03-15T02:35:31;12.70;91.60
24645;DHT22;12780;45.502;9.146;2023-03-15T02:37:58;12.60;91.90
24645;DHT22;12780;45.502;9.146;2023-03-15T02:40:25;12.60;91.80
24645;DHT22;12780;45.502;9.146;2023-03-15T02:42:58;12.60;92.00
24645;DHT22;12780;45.502;9.146;2023-03-15T02:45:25;12.60;91.80
24645;DHT22;12780;45.502;9.146;2023-03-15T02:47:52;12.60;92.00
24645;DHT22;12780;45.502;9.146;2023-03-15T02:50:18;12.60;91.90
24645;DHT22;12780;45.502;9.146;2023-03-15T02:52:44;12.60;91.60
24645;DHT22;12780;45.502;9.146;2023-03-15T02:55:10;12.60;91.70
24645;DHT22;12780;45.502;9.146;2023-03-15T02:57:36;12.50;91.80
24645;DHT22;12780;45.502;9.146;2023-03-15T03:00:03;12.70;91.80
24645;DHT22;12780;45.502;9.146;2023-03-15T03:02:37;12.70;91.50
24645;DHT22;12780;45.502;9.146;2023-03-15T03:05:03;12.70;91.60
24645;DHT22;12780;45.502;9.146;2023-03-15T03:07:29;12.70;91.80
24645;DHT22;12780;45.502;9.146;2023-03-15T03:09:55;12.70;92.00
24645;DHT22;12780;45.502;9.146;2023-03-15T03:12:21;12.60;92.10
24645;DHT22;12780;45.502;9.146;2023-03-15T03:14:46;12.60;92.30
24645;DHT22;12780;45.502;9.146;2023-03-15T03:17:12;12.60;92.50
24645;DHT22;12780;45.502;9.146;2023-03-15T03:19:37;12.60;92.20
24645;DHT22;12780;45.502;9.146;2023-03-15T03:22:03;12.60;92.30
24645;DHT22;12780;45.502;9.146;2023-03-15T03:24:29;12.60;91.80
24645;DHT22;12780;45.502;9.146;2023-03-15T03:26:55;12.60;91.70
24645;DHT22;12780;45.502;9.146;2023-03-15T03:29:23;12.70;91.70
24645;DHT22;12780;45.502;9.146;2023-03-15T03:31:48;12.90;92.00
24645;DHT22;12780;45.502;9.146;2023-03-15T03:34:14;12.80;91.20
24645;DHT22;12780;45.502;9.146;2023-03-15T03:36:41;12.80;91.80
24645;DHT22;12780;45.502;9.146;2023-03-15T03:39:07;12.80;91.90
24645;DHT22;12780;45.502;9.146;2023-03-15T03:41:33;12.80;92.10
24645;DHT22;12780;45.502;9.146;2023-03-15T03:43:59;12.70;92.20
24645;DHT22;12780;45.502;9.146;2023-03-15T03:46:24;12.80;92.30
24645;DHT22;12780;45.502;9.146;2023-03-15T03:48:50;12.60;92.50
24645;DHT22;12780;45.502;9.146;2023-03-15T03:51:15;12.60;92.70
24645;DHT22;12780;45.502;9.146;2023-03-15T03:53:41;12.50;92.70
24645;DHT22;12780;45.502;9.146;2023-03-15T03:56:07;12.50;92.90
24645;DHT22;12780;45.502;9.146;2023-03-15T03:58:33;12.40;93.00
24645;DHT22;12780;45.502;9.146;2023-03-15T04:00:59;12.40;92.90
24645;DHT22;12780;45.502;9.146;2023-03-15T04:03:25;12.40;92.90
24645;DHT22;12780;45.502;9.146;2023-03-15T04:05:55;12.40;92.70
24645;DHT22;12780;45.502;9.146;2023-03-15T04:08:21;12.40;92.70
24645;DHT22;12780;45.502;9.146;2023-03-15T04:10:55;12.40;92.50
24645;DHT22;12780;45.502;9.146;2023-03-15T04:13:22;12.40;92.70
24645;DHT22;12780;45.502;9.146;2023-03-15T04:15:48;12.40;92.60
24645;DHT22;12780;45.502;9.146;2023-03-15T04:18:14;12.50;92.80
24645;DHT22;12780;45.502;9.146;2023-03-15T04:20:40;12.40;93.00
24645;DHT22;12780;45.502;9.146;2023-03-15T04:23:12;12.40;92.90
24645;DHT22;12780;45.502;9.146;2023-03-15T04:25:37;12.40;92.90
24645;DHT22;12780;45.502;9.146;2023-03-15T04:28:03;12.40;93.30
24645;DHT22;12780;45.502;9.146;2023-03-15T04:30:29;12.40;93.20
24645;DHT22;12780;45.502;9.146;2023-03-15T04:32:56;12.30;93.30
24645;DHT22;12780;45.502;9.146;2023-03-15T04:35:29;12.30;93.40
24645;DHT22;12780;45.502;9.146;2023-03-15T04:37:55;12.30;93.50
24645;DHT22;12780;45.502;9.146;2023-03-15T04:40:22;12.30;94.00
24645;DHT22;12780;45.502;9.146;2023-03-15T04:42:49;12.20;94.20
24645;DHT22;12780;45.502;9.146;2023-03-15T04:45:15;12.20;94.40
24645;DHT22;12780;45.502;9.146;2023-03-15T04:47:41;12.10;94.60
24645;DHT22;12780;45.502;9.146;2023-03-15T04:50:07;12.10;94.80
24645;DHT22;12780;45.502;9.146;2023-03-15T04:52:33;12.10;95.10
24645;DHT22;12780;45.502;9.146;2023-03-15T04:54:58;12.10;95.20
24645;DHT22;12780;45.502;9.146;2023-03-15T04:57:24;12.10;95.40
24645;DHT22;12780;45.502;9.146;2023-03-15T04:59:49;12.00;95.20
24645;DHT22;12780;45.502;9.146;2023-03-15T05:02:15;12.00;95.10
24645;DHT22;12780;45.502;9.146;2023-03-15T05:04:41;12.00;95.20
24645;DHT22;12780;45.502;9.146;2023-03-15T05:07:07;12.00;95.20
24645;DHT22;12780;45.502;9.146;2023-03-15T05:09:33;12.00;95.30
24645;DHT22;12780;45.502;9.146;2023-03-15T05:12:05;12.00;95.20
24645;DHT22;12780;45.502;9.146;2023-03-15T05:14:31;11.90;95.30
24645;DHT22;12780;45.502;9.146;2023-03-15T05:16:57;12.00;95.20
24645;DHT22;12780;45.502;9.146;2023-03-15T05:19:24;11.90;95.00
24645;DHT22;12780;45.502;9.146;2023-03-15T05:21:50;11.90;94.70
24645;DHT22;12780;45.502;9.146;2023-03-15T05:24:16;11.90;94.40
24645;DHT22;12780;45.502;9.146;2023-03-15T05:26:41;11.90;94.40
24645;DHT22;12780;45.502;9.146;2023-03-15T05:29:11;11.90;94.60
24645;DHT22;12780;45.502;9.146;2023-03-15T05:31:37;11.90;94.50
24645;DHT22;12780;45.502;9.146;2023-03-15T05:34:03;11.90;94.30
24645;DHT22;12780;45.502;9.146;2023-03-15T05:36:30;11.90;94.40
24645;DHT22;12780;45.502;9.146;2023-03-15T05:38:55;11.90;94.40
24645;DHT22;12780;45.502;9.146;2023-03-15T05:41:21;11.90;94.30
24645;DHT22;12780;45.502;9.146;2023-03-15T05:43:48;11.90;93.90
24645;DHT22;12780;45.502;9.146;2023-03-15T05:46:14;11.80;93.50
24645;DHT22;12780;45.502;9.146;2023-03-15T05:48:40;11.80;93.50
24645;DHT22;12780;45.502;9.146;2023-03-15T05:51:06;11.80;93.40
24645;DHT22;12780;45.502;9.146;2023-03-15T05:53:31;11.80;93.30
24645;DHT22;12780;45.502;9.146;2023-03-15T05:55:57;11.80;92.80
24645;DHT22;12780;45.502;9.146;2023-03-15T05:58:22;11.90;92.70
24645;DHT22;12780;45.502;9.146;2023-03-15T06:00:48;11.90;92.30
24645;DHT22;12780;45.502;9.146;2023-03-15T06:03:14;11.80;92.10
24645;DHT22;12780;45.502;9.146;2023-03-15T06:05:42;11.90;92.40
24645;DHT22;12780;45.502;9.146;2023-03-15T06:08:07;11.90;91.90
24645;DHT22;12780;45.502;9.146;2023-03-15T06:10:33;11.90;91.80
24645;DHT22;12780;45.502;9.146;2023-03-15T06:12:59;11.90;90.90
24645;DHT22;12780;45.502;9.146;2023-03-15T06:15:25;11.80;90.40
24645;DHT22;12780;45.502;9.146;2023-03-15T06:17:51;11.90;90.30
24645;DHT22;12780;45.502;9.146;2023-03-15T06:20:16;12.00;90.00
24645;DHT22;12780;45.502;9.146;2023-03-15T06:22:42;11.90;89.80
24645;DHT22;12780;45.502;9.146;2023-03-15T06:25:08;12.00;89.70
24645;DHT22;12780;45.502;9.146;2023-03-15T06:27:35;12.00;89.60
24645;DHT22;12780;45.502;9.146;2023-03-15T06:30:01;12.00;87.70
24645;DHT22;12780;45.502;9.146;2023-03-15T06:32:27;12.00;88.30
24645;DHT22;12780;45.502;9.146;2023-03-15T06:34:52;12.00;87.70
24645;DHT22;12780;45.502;9.146;2023-03-15T06:37:18;12.00;88.10
24645;DHT22;12780;45.502;9.146;2023-03-15T06:39:44;12.00;88.20
24645;DHT22;12780;45.502;9.146;2023-03-15T06:42:10;12.00;86.80
24645;DHT22;12780;45.502;9.146;2023-03-15T06:44:38;12.00;86.50
24645;DHT22;12780;45.502;9.146;2023-03-15T06:47:04;12.00;85.00
24645;DHT22;12780;45.502;9.146;2023-03-15T06:49:30;12.10;84.80
24645;DHT22;12780;45.502;9.146;2023-03-15T06:51:56;12.10;83.10
24645;DHT22;12780;45.502;9.146;2023-03-15T06:54:22;12.20;83.30
24645;DHT22;12780;45.502;9.146;2023-03-15T06:56:48;12.10;84.80
24645;DHT22;12780;45.502;9.146;2023-03-15T06:59:14;12.20;85.10
24645;DHT22;12780;45.502;9.146;2023-03-15T07:01:39;12.20;87.30
24645;DHT22;12780;45.502;9.146;2023-03-15T07:04:05;12.20;86.00
24645;DHT22;12780;45.502;9.146;2023-03-15T07:06:31;12.20;85.20
24645;DHT22;12780;45.502;9.146;2023-03-15T07:08:57;12.20;84.60
24645;DHT22;12780;45.502;9.146;2023-03-15T07:11:23;12.20;86.80
24645;DHT22;12780;45.502;9.146;2023-03-15T07:13:48;12.10;87.00
24645;DHT22;12780;45.502;9.146;2023-03-15T07:16:14;12.20;88.20
24645;DHT22;12780;45.502;9.146;2023-03-15T07:18:40;12.30;85.80
24645;DHT22;12780;45.502;9.146;2023-03-15T07:21:05;12.20;86.10
24645;DHT22;12780;45.502;9.146;2023-03-15T07:23:32;12.20;86.10
24645;DHT22;12780;45.502;9.146;2023-03-15T07:25:58;12.20;85.50
24645;DHT22;12780;45.502;9.146;2023-03-15T07:28:25;12.30;86.60
24645;DHT22;12780;45.502;9.146;2023-03-15T07:33:19;12.40;85.90
24645;DHT22;12780;45.502;9.146;2023-03-15T07:35:47;12.40;85.80
24645;DHT22;12780;45.502;9.146;2023-03-15T07:38:13;12.30;85.90
24645;DHT22;12780;45.502;9.146;2023-03-15T07:40:39;12.50;86.10
24645;DHT22;12780;45.502;9.146;2023-03-15T07:43:04;12.50;85.60
24645;DHT22;12780;45.502;9.146;2023-03-15T07:45:30;12.60;86.30
24645;DHT22;12780;45.502;9.146;2023-03-15T07:47:56;12.70;86.50
24645;DHT22;12780;45.502;9.146;2023-03-15T07:50:22;12.80;86.90
24645;DHT22;12780;45.502;9.146;2023-03-15T07:52:47;12.70;87.50
24645;DHT22;12780;45.502;9.146;2023-03-15T07:55:13;12.80;88.30
24645;DHT22;12780;45.502;9.146;2023-03-15T07:57:39;12.80;87.90
24645;DHT22;12780;45.502;9.146;2023-03-15T08:00:05;12.90;88.50
24645;DHT22;12780;45.502;9.146;2023-03-15T08:02:31;12.90;90.10
24645;DHT22;12780;45.502;9.146;2023-03-15T08:04:56;13.00;90.00
24645;DHT22;12780;45.502;9.146;2023-03-15T08:07:23;13.00;88.80
24645;DHT22;12780;45.502;9.146;2023-03-15T08:09:48;13.10;89.20
24645;DHT22;12780;45.502;9.146;2023-03-15T08:12:14;13.10;88.60
24645;DHT22;12780;45.502;9.146;2023-03-15T08:14:39;13.10;87.80
24645;DHT22;12780;45.502;9.146;2023-03-15T08:17:05;13.10;87.70
24645;DHT22;12780;45.502;9.146;2023-03-15T08:19:31;13.10;88.40
24645;DHT22;12780;45.502;9.146;2023-03-15T08:21:56;13.20;88.60
24645;DHT22;12780;45.502;9.146;2023-03-15T08:24:22;13.30;88.90
24645;DHT22;12780;45.502;9.146;2023-03-15T08:26:47;13.30;88.00
24645;DHT22;12780;45.502;9.146;2023-03-15T08:29:13;13.40;89.20
24645;DHT22;12780;45.502;9.146;2023-03-15T08:31:39;13.40;85.20
24645;DHT22;12780;45.502;9.146;2023-03-15T08:34:05;13.40;82.60
24645;DHT22;12780;45.502;9.146;2023-03-15T08:36:31;13.30;81.90
24645;DHT22;12780;45.502;9.146;2023-03-15T08:38:57;13.30;81.80
24645;DHT22;12780;45.502;9.146;2023-03-15T08:41:22;13.30;80.60
24645;DHT22;12780;45.502;9.146;2023-03-15T08:43:48;13.30;81.10
24645;DHT22;12780;45.502;9.146;2023-03-15T08:46:13;13.30;78.90
24645;DHT22;12780;45.502;9.146;2023-03-15T08:48:39;13.20;80.60
24645;DHT22;12780;45.502;9.146;2023-03-15T08:51:06;13.30;80.20
24645;DHT22;12780;45.502;9.146;2023-03-15T08:53:33;13.20;79.90
24645;DHT22;12780;45.502;9.146;2023-03-15T08:55:59;13.30;80.30
24645;DHT22;12780;45.502;9.146;2023-03-15T08:58:24;13.40;80.00
24645;DHT22;12780;45.502;9.146;2023-03-15T09:00:50;13.50;79.70
24645;DHT22;12780;45.502;9.146;2023-03-15T09:03:17;13.50;78.70
24645;DHT22;12780;45.502;9.146;2023-03-15T09:05:43;13.60;78.70
24645;DHT22;12780;45.502;9.146;2023-03-15T09:08:09;13.60;78.00
24645;DHT22;12780;45.502;9.146;2023-03-15T09:10:35;13.60;77.20
24645;DHT22;12780;45.502;9.146;2023-03-15T09:13:00;13.60;75.80
24645;DHT22;12780;45.502;9.146;2023-03-15T09:15:26;13.60;76.60
24645;DHT22;12780;45.502;9.146;2023-03-15T09:17:51;13.60;74.40
24645;DHT22;12780;45.502;9.146;2023-03-15T09:20:18;13.60;73.10
24645;DHT22;12780;45.502;9.146;2023-03-15T09:22:51;13.60;73.80
24645;DHT22;12780;45.502;9.146;2023-03-15T09:25:17;13.60;73.60
24645;DHT22;12780;45.502;9.146;2023-03-15T09:27:43;13.60;72.00
24645;DHT22;12780;45.502;9.146;2023-03-15T09:30:09;13.60;72.30
24645;DHT22;12780;45.502;9.146;2023-03-15T09:32:35;13.70;73.30
24645;DHT22;12780;45.502;9.146;2023-03-15T09:35:06;13.80;71.40
24645;DHT22;12780;45.502;9.146;2023-03-15T09:37:33;13.70;71.80
24645;DHT22;12780;45.502;9.146;2023-03-15T09:39:58;13.90;74.20
24645;DHT22;12780;45.502;9.146;2023-03-15T09:48:10;14.00;67.90
24645;DHT22;12780;45.502;9.146;2023-03-15T09:50:45;14.00;67.70
24645;DHT22;12780;45.502;9.146;2023-03-15T09:53:23;14.00;65.30
24645;DHT22;12780;45.502;9.146;2023-03-15T09:55:50;13.90;59.30
24645;DHT22;12780;45.502;9.146;2023-03-15T09:58:29;13.90;63.20
24645;DHT22;12780;45.502;9.146;2023-03-15T10:01:01;13.90;63.10
24645;DHT22;12780;45.502;9.146;2023-03-15T10:03:46;13.90;61.10
24645;DHT22;12780;45.502;9.146;2023-03-15T10:06:40;13.90;63.00
24645;DHT22;12780;45.502;9.146;2023-03-15T10:09:14;14.10;64.10
24645;DHT22;12780;45.502;9.146;2023-03-15T10:11:56;14.10;62.20
24645;DHT22;12780;45.502;9.146;2023-03-15T10:17:14;14.10;62.10
24645;DHT22;12780;45.502;9.146;2023-03-15T10:19:52;14.20;65.00
24645;DHT22;12780;45.502;9.146;2023-03-15T10:22:40;14.20;63.00
24645;DHT22;12780;45.502;9.146;2023-03-15T10:25:29;14.10;60.10
24645;DHT22;12780;45.502;9.146;2023-03-15T10:28:08;14.20;59.00
24645;DHT22;12780;45.502;9.146;2023-03-15T10:30:37;14.10;57.70
24645;DHT22;12780;45.502;9.146;2023-03-15T10:33:13;14.10;57.40
24645;DHT22;12780;45.502;9.146;2023-03-15T10:35:40;14.10;59.00
24645;DHT22;12780;45.502;9.146;2023-03-15T10:38:33;14.10;60.40
24645;DHT22;12780;45.502;9.146;2023-03-15T10:40:59;14.20;61.30
24645;DHT22;12780;45.502;9.146;2023-03-15T10:43:30;14.30;60.90
24645;DHT22;12780;45.502;9.146;2023-03-15T10:46:11;14.50;61.20
24645;DHT22;12780;45.502;9.146;2023-03-15T10:48:38;14.40;57.20
24645;DHT22;12780;45.502;9.146;2023-03-15T10:51:19;14.50;57.50
24645;DHT22;12780;45.502;9.146;2023-03-15T10:53:58;14.50;56.60
24645;DHT22;12780;45.502;9.146;2023-03-15T10:56:30;14.60;55.30
24645;DHT22;12780;45.502;9.146;2023-03-15T10:58:57;14.60;57.30
24645;DHT22;12780;45.502;9.146;2023-03-15T11:01:29;14.60;56.20
24645;DHT22;12780;45.502;9.146;2023-03-15T11:04:15;14.70;57.40
24645;DHT22;12780;45.502;9.146;2023-03-15T11:09:23;14.80;57.20
24645;DHT22;12780;45.502;9.146;2023-03-15T11:12:00;14.90;57.30
24645;DHT22;12780;45.502;9.146;2023-03-15T11:14:33;14.90;58.30
24645;DHT22;12780;45.502;9.146;2023-03-15T11:17:00;15.00;57.00
24645;DHT22;12780;45.502;9.146;2023-03-15T11:19:29;15.00;58.70
24645;DHT22;12780;45.502;9.146;2023-03-15T11:21:57;15.20;56.70
24645;DHT22;12780;45.502;9.146;2023-03-15T11:24:30;15.40;56.90
24645;DHT22;12780;45.502;9.146;2023-03-15T11:27:01;15.20;54.20
24645;DHT22;12780;45.502;9.146;2023-03-15T11:29:31;15.20;56.70
24645;DHT22;12780;45.502;9.146;2023-03-15T11:31:59;15.20;56.60
24645;DHT22;12780;45.502;9.146;2023-03-15T11:35:05;15.30;54.40
24645;DHT22;12780;45.502;9.146;2023-03-15T11:40:25;15.40;53.40
24645;DHT22;12780;45.502;9.146;2023-03-15T11:43:14;15.50;54.60
24645;DHT22;12780;45.502;9.146;2023-03-15T11:45:46;15.50;52.70
24645;DHT22;12780;45.502;9.146;2023-03-15T11:48:51;15.50;53.70
24645;DHT22;12780;45.502;9.146;2023-03-15T11:51:19;15.50;51.80
24645;DHT22;12780;45.502;9.146;2023-03-15T11:57:02;15.70;55.00
24645;DHT22;12780;45.502;9.146;2023-03-15T11:59:30;15.70;53.10
24645;DHT22;12780;45.502;9.146;2023-03-15T12:01:58;15.70;52.30
24645;DHT22;12780;45.502;9.146;2023-03-15T12:07:00;15.60;51.80
24645;DHT22;12780;45.502;9.146;2023-03-15T12:12:33;15.70;53.60
24645;DHT22;12780;45.502;9.146;2023-03-15T12:17:55;15.90;52.60
24645;DHT22;12780;45.502;9.146;2023-03-15T12:20:41;15.80;52.10
24645;DHT22;12780;45.502;9.146;2023-03-15T12:23:28;15.90;52.40
24645;DHT22;12780;45.502;9.146;2023-03-15T12:26:07;16.00;53.70
24645;DHT22;12780;45.502;9.146;2023-03-15T12:28:35;16.10;53.60
24645;DHT22;12780;45.502;9.146;2023-03-15T12:31:05;16.00;52.70
24645;DHT22;12780;45.502;9.146;2023-03-15T12:33:47;16.00;52.90
24645;DHT22;12780;45.502;9.146;2023-03-15T12:36:34;16.00;53.10
24645;DHT22;12780;45.502;9.146;2023-03-15T12:39:19;16.10;54.20
24645;DHT22;12780;45.502;9.146;2023-03-15T12:41:49;15.90;52.10
24645;DHT22;12780;45.502;9.146;2023-03-15T12:47:05;15.80;53.20
24645;DHT22;12780;45.502;9.146;2023-03-15T12:49:43;15.90;51.90
24645;DHT22;12780;45.502;9.146;2023-03-15T12:52:25;15.80;52.60
24645;DHT22;12780;45.502;9.146;2023-03-15T12:57:26;15.80;52.70
24645;DHT22;12780;45.502;9.146;2023-03-15T13:00:14;15.80;52.90
24645;DHT22;12780;45.502;9.146;2023-03-15T13:02:51;15.90;53.40
24645;DHT22;12780;45.502;9.146;2023-03-15T13:05:23;15.90;53.10
24645;DHT22;12780;45.502;9.146;2023-03-15T13:07:56;15.90;52.60
24645;DHT22;12780;45.502;9.146;2023-03-15T13:10:37;15.80;52.90
24645;DHT22;12780;45.502;9.146;2023-03-15T13:18:53;15.70;51.50
24645;DHT22;12780;45.502;9.146;2023-03-15T13:21:35;15.70;51.90
24645;DHT22;12780;45.502;9.146;2023-03-15T13:24:03;15.70;51.50
24645;DHT22;12780;45.502;9.146;2023-03-15T13:29:15;15.80;52.90
24645;DHT22;12780;45.502;9.146;2023-03-15T13:31:43;15.90;52.80
24645;DHT22;12780;45.502;9.146;2023-03-15T13:34:18;15.90;53.50
24645;DHT22;12780;45.502;9.146;2023-03-15T13:36:49;15.90;53.20
24645;DHT22;12780;45.502;9.146;2023-03-15T13:39:26;15.90;51.90
24645;DHT22;12780;45.502;9.146;2023-03-15T13:44:23;15.90;52.50
24645;DHT22;12780;45.502;9.146;2023-03-15T13:46:50;15.90;51.60
24645;DHT22;12780;45.502;9.146;2023-03-15T13:49:17;16.00;52.80
24645;DHT22;12780;45.502;9.146;2023-03-15T13:51:45;15.90;53.90
24645;DHT22;12780;45.502;9.146;2023-03-15T13:54:19;15.90;52.60
24645;DHT22;12780;45.502;9.146;2023-03-15T13:56:57;16.00;53.40
24645;DHT22;12780;45.502;9.146;2023-03-15T13:59:27;15.90;52.20
24645;DHT22;12780;45.502;9.146;2023-03-15T14:01:55;16.00;53.30
24645;DHT22;12780;45.502;9.146;2023-03-15T14:04:22;15.90;51.70
24645;DHT22;12780;45.502;9.146;2023-03-15T14:06:48;16.00;52.20
24645;DHT22;12780;45.502;9.146;2023-03-15T14:09:23;16.00;54.10
24645;DHT22;12780;45.502;9.146;2023-03-15T14:12:03;16.00;52.50
24645;DHT22;12780;45.502;9.146;2023-03-15T14:14:31;16.00;54.00
24645;DHT22;12780;45.502;9.146;2023-03-15T14:16:58;16.00;53.50
24645;DHT22;12780;45.502;9.146;2023-03-15T14:19:27;16.10;54.20
24645;DHT22;12780;45.502;9.146;2023-03-15T14:22:12;16.10;54.20
24645;DHT22;12780;45.502;9.146;2023-03-15T14:24:41;16.20;54.00
24645;DHT22;12780;45.502;9.146;2023-03-15T14:27:16;16.20;53.40
24645;DHT22;12780;45.502;9.146;2023-03-15T14:32:28;16.20;53.60
24645;DHT22;12780;45.502;9.146;2023-03-15T14:35:21;16.20;53.10
24645;DHT22;12780;45.502;9.146;2023-03-15T14:37:48;16.10;53.10
24645;DHT22;12780;45.502;9.146;2023-03-15T14:40:36;16.10;54.00
24645;DHT22;12780;45.502;9.146;2023-03-15T14:43:04;16.10;53.90
24645;DHT22;12780;45.502;9.146;2023-03-15T14:45:31;16.10;54.50
24645;DHT22;12780;45.502;9.146;2023-03-15T14:48:00;16.00;54.20
24645;DHT22;12780;45.502;9.146;2023-03-15T14:50:30;16.00;53.50
24645;DHT22;12780;45.502;9.146;2023-03-15T14:52:57;16.10;55.30
24645;DHT22;12780;45.502;9.146;2023-03-15T14:55:27;16.00;53.60
24645;DHT22;12780;45.502;9.146;2023-03-15T14:57:54;15.90;53.20
24645;DHT22;12780;45.502;9.146;2023-03-15T15:00:19;15.80;53.90
24645;DHT22;12780;45.502;9.146;2023-03-15T15:02:50;15.90;54.50
24645;DHT22;12780;45.502;9.146;2023-03-15T15:05:37;15.90;54.70
24645;DHT22;12780;45.502;9.146;2023-03-15T15:08:05;16.00;55.80
24645;DHT22;12780;45.502;9.146;2023-03-15T15:10:33;16.00;55.50
24645;DHT22;12780;45.502;9.146;2023-03-15T15:13:00;16.00;55.30
24645;DHT22;12780;45.502;9.146;2023-03-15T15:15:26;15.90;56.50
24645;DHT22;12780;45.502;9.146;2023-03-15T15:17:51;16.00;56.20
24645;DHT22;12780;45.502;9.146;2023-03-15T15:20:18;16.00;56.10
24645;DHT22;12780;45.502;9.146;2023-03-15T15:22:44;16.10;56.20
24645;DHT22;12780;45.502;9.146;2023-03-15T15:25:18;16.10;55.50
24645;DHT22;12780;45.502;9.146;2023-03-15T15:27:45;16.00;56.20
24645;DHT22;12780;45.502;9.146;2023-03-15T15:30:16;16.00;55.20
24645;DHT22;12780;45.502;9.146;2023-03-15T15:32:42;16.00;55.70
24645;DHT22;12780;45.502;9.146;2023-03-15T15:35:15;16.00;56.60
24645;DHT22;12780;45.502;9.146;2023-03-15T15:37:43;16.10;56.70
24645;DHT22;12780;45.502;9.146;2023-03-15T15:40:38;16.10;56.40
24645;DHT22;12780;45.502;9.146;2023-03-15T15:43:04;16.10;55.40
24645;DHT22;12780;45.502;9.146;2023-03-15T15:45:30;16.00;55.70
24645;DHT22;12780;45.502;9.146;2023-03-15T15:47:59;16.00;56.50
24645;DHT22;12780;45.502;9.146;2023-03-15T15:50:31;16.00;57.40
24645;DHT22;12780;45.502;9.146;2023-03-15T15:52:58;16.00;57.10
24645;DHT22;12780;45.502;9.146;2023-03-15T15:55:28;16.00;58.10
24645;DHT22;12780;45.502;9.146;2023-03-15T15:57:55;16.00;57.00
24645;DHT22;12780;45.502;9.146;2023-03-15T16:00:26;16.00;56.70
24645;DHT22;12780;45.502;9.146;2023-03-15T16:02:53;15.90;56.50
24645;DHT22;12780;45.502;9.146;2023-03-15T16:05:21;15.90;55.90
24645;DHT22;12780;45.502;9.146;2023-03-15T16:07:49;15.90;57.10
24645;DHT22;12780;45.502;9.146;2023-03-15T16:10:24;15.90;57.80
24645;DHT22;12780;45.502;9.146;2023-03-15T16:12:53;16.00;57.60
24645;DHT22;12780;45.502;9.146;2023-03-15T16:15:19;15.90;57.30
24645;DHT22;12780;45.502;9.146;2023-03-15T16:17:45;15.80;57.50
24645;DHT22;12780;45.502;9.146;2023-03-15T16:20:12;15.80;58.10
24645;DHT22;12780;45.502;9.146;2023-03-15T16:22:42;15.80;57.70
24645;DHT22;12780;45.502;9.146;2023-03-15T16:25:17;15.90;57.10
24645;DHT22;12780;45.502;9.146;2023-03-15T16:27:43;15.80;57.20
24645;DHT22;12780;45.502;9.146;2023-03-15T16:30:22;15.70;57.20
24645;DHT22;12780;45.502;9.146;2023-03-15T16:32:48;15.60;57.90
24645;DHT22;12780;45.502;9.146;2023-03-15T16:35:14;15.60;57.40